sensor_id;sensor_type;location;lat;lon;timestamp;P1;durP1;ratioP1;P2;durP2;ratioP2
15843;SDS011;50807;52.436;13.346;2022-11-03T00:00:11;3.47;;;2.80;;
15843;SDS011;50807;52.436;13.346;2022-11-03T00:00:43;3.03;;;2.55;;
15843;SDS011;50807;52.436;13.346;2022-11-03T00:01:14;3.17;;;2.57;;
15843;SDS011;50807;52.436;13.346;2022-11-03T00:01:45;5.63;;;2.90;;
15843;SDS011;50807;52.436;13.346;2022-11-03T00:02:18;2.83;;;2.60;;
15843;SDS011;50807;52.436;13.346;2022-11-03T00:02:49;3.87;;;2.63;;
15843;SDS011;50807;52.436;13.346;2022-11-03T00:03:20;3.83;;;2.50;;
15843;SDS011;50807;52.436;13.346;2022-11-03T00:03:52;4.30;;;2.88;;
15843;SDS011;50807;52.436;13.346;2022-11-03T00:04:22;4.70;;;2.60;;
15843;SDS011;50807;52.436;13.346;2022-11-03T00:04:53;6.20;;;3.03;;
15843;SDS011;50807;52.436;13.346;2022-11-03T00:05:25;3.78;;;2.60;;
15843;SDS011;50807;52.436;13.346;2022-11-03T00:06:14;3.33;;;3.00;;
15843;SDS011;50807;52.436;13.346;2022-11-03T00:06:45;3.77;;;2.73;;
15843;SDS011;50807;52.436;13.346;2022-11-03T00:07:18;4.90;;;3.03;;
15843;SDS011;50807;52.436;13.346;2022-11-03T00:07:51;3.25;;;2.78;;
15843;SDS011;50807;52.436;13.346;2022-11-03T00:08:22;4.87;;;2.97;;
15843;SDS011;50807;52.436;13.346;2022-11-03T00:08:52;3.37;;;3.07;;
15843;SDS011;50807;52.436;13.346;2022-11-03T00:09:29;6.63;;;2.90;;
15843;SDS011;50807;52.436;13.346;2022-11-03T00:10:00;3.35;;;2.60;;
15843;SDS011;50807;52.436;13.346;2022-11-03T00:10:31;3.93;;;2.77;;
15843;SDS011;50807;52.436;13.346;2022-11-03T00:11:04;2.97;;;2.50;;
15843;SDS011;50807;52.436;13.346;2022-11-03T00:11:38;3.40;;;2.95;;
15843;SDS011;50807;52.436;13.346;2022-11-03T00:12:11;3.38;;;2.92;;
15843;SDS011;50807;52.436;13.346;2022-11-03T00:12:45;4.30;;;2.72;;
15843;SDS011;50807;52.436;13.346;2022-11-03T00:13:18;3.15;;;2.75;;
15843;SDS011;50807;52.436;13.346;2022-11-03T00:13:49;3.22;;;2.90;;
15843;SDS011;50807;52.436;13.346;2022-11-03T00:14:21;4.32;;;2.75;;
15843;SDS011;50807;52.436;13.346;2022-11-03T00:14:57;3.65;;;2.72;;
15843;SDS011;50807;52.436;13.346;2022-11-03T00:15:29;4.13;;;3.17;;
15843;SDS011;50807;52.436;13.346;2022-11-03T00:16:01;4.55;;;3.13;;
15843;SDS011;50807;52.436;13.346;2022-11-03T00:16:32;3.35;;;3.05;;
15843;SDS011;50807;52.436;13.346;2022-11-03T00:17:04;3.15;;;2.53;;
15843;SDS011;50807;52.436;13.346;2022-11-03T00:17:34;4.27;;;2.90;;
15843;SDS011;50807;52.436;13.346;2022-11-03T00:18:05;3.40;;;2.83;;
15843;SDS011;50807;52.436;13.346;2022-11-03T00:18:37;3.90;;;2.88;;
15843;SDS011;50807;52.436;13.346;2022-11-03T00:19:09;4.70;;;3.15;;
15843;SDS011;50807;52.436;13.346;2022-11-03T00:19:40;3.92;;;2.92;;
15843;SDS011;50807;52.436;13.346;2022-11-03T00:20:12;3.05;;;2.70;;
15843;SDS011;50807;52.436;13.346;2022-11-03T00:20:43;3.73;;;2.90;;
15843;SDS011;50807;52.436;13.346;2022-11-03T00:21:14;3.77;;;2.73;;
15843;SDS011;50807;52.436;13.346;2022-11-03T00:21:45;3.33;;;2.50;;
15843;SDS011;50807;52.436;13.346;2022-11-03T00:22:16;3.70;;;2.87;;
15843;SDS011;50807;52.436;13.346;2022-11-03T00:22:47;5.87;;;3.20;;
15843;SDS011;50807;52.436;13.346;2022-11-03T00:23:19;3.78;;;3.15;;
15843;SDS011;50807;52.436;13.346;2022-11-03T00:23:49;3.70;;;2.90;;
15843;SDS011;50807;52.436;13.346;2022-11-03T00:24:21;3.10;;;2.60;;
15843;SDS011;50807;52.436;13.346;2022-11-03T00:24:52;4.00;;;2.83;;
15843;SDS011;50807;52.436;13.346;2022-11-03T00:25:23;3.50;;;2.53;;
15843;SDS011;50807;52.436;13.346;2022-11-03T00:25:55;3.90;;;3.00;;
15843;SDS011;50807;52.436;13.346;2022-11-03T00:26:34;3.78;;;3.00;;
15843;SDS011;50807;52.436;13.346;2022-11-03T00:27:07;4.28;;;2.83;;
15843;SDS011;50807;52.436;13.346;2022-11-03T00:27:37;4.43;;;2.67;;
15843;SDS011;50807;52.436;13.346;2022-11-03T00:28:08;3.07;;;2.80;;
15843;SDS011;50807;52.436;13.346;2022-11-03T00:28:39;3.60;;;2.43;;
15843;SDS011;50807;52.436;13.346;2022-11-03T00:29:13;3.15;;;2.65;;
15843;SDS011;50807;52.436;13.346;2022-11-03T00:29:44;4.03;;;2.72;;
15843;SDS011;50807;52.436;13.346;2022-11-03T00:30:15;4.40;;;2.97;;
15843;SDS011;50807;52.436;13.346;2022-11-03T00:30:48;4.47;;;2.92;;
15843;SDS011;50807;52.436;13.346;2022-11-03T00:31:19;3.20;;;2.78;;
15843;SDS011;50807;52.436;13.346;2022-11-03T00:31:52;2.85;;;2.65;;
15843;SDS011;50807;52.436;13.346;2022-11-03T00:32:24;5.10;;;3.22;;
15843;SDS011;50807;52.436;13.346;2022-11-03T00:32:54;3.30;;;2.53;;
15843;SDS011;50807;52.436;13.346;2022-11-03T00:33:29;3.78;;;3.00;;
15843;SDS011;50807;52.436;13.346;2022-11-03T00:34:01;3.92;;;2.67;;
15843;SDS011;50807;52.436;13.346;2022-11-03T00:34:34;3.00;;;2.72;;
15843;SDS011;50807;52.436;13.346;2022-11-03T00:35:05;3.40;;;2.83;;
15843;SDS011;50807;52.436;13.346;2022-11-03T00:35:36;4.13;;;2.50;;
15843;SDS011;50807;52.436;13.346;2022-11-03T00:36:09;3.20;;;2.90;;
15843;SDS011;50807;52.436;13.346;2022-11-03T00:36:45;4.65;;;2.90;;
15843;SDS011;50807;52.436;13.346;2022-11-03T00:37:16;3.23;;;2.70;;
15843;SDS011;50807;52.436;13.346;2022-11-03T00:37:47;3.67;;;2.73;;
15843;SDS011;50807;52.436;13.346;2022-11-03T00:38:18;3.42;;;2.70;;
15843;SDS011;50807;52.436;13.346;2022-11-03T00:38:49;3.40;;;2.67;;
15843;SDS011;50807;52.436;13.346;2022-11-03T00:39:20;4.45;;;3.10;;
15843;SDS011;50807;52.436;13.346;2022-11-03T00:39:52;3.25;;;2.50;;
15843;SDS011;50807;52.436;13.346;2022-11-03T00:40:23;4.70;;;3.00;;
15843;SDS011;50807;52.436;13.346;2022-11-03T00:40:53;3.10;;;2.57;;
15843;SDS011;50807;52.436;13.346;2022-11-03T00:41:25;3.17;;;2.85;;
15843;SDS011;50807;52.436;13.346;2022-11-03T00:41:57;3.42;;;2.85;;
15843;SDS011;50807;52.436;13.346;2022-11-03T00:42:28;4.80;;;2.60;;
15843;SDS011;50807;52.436;13.346;2022-11-03T00:42:59;3.20;;;2.77;;
15843;SDS011;50807;52.436;13.346;2022-11-03T00:43:31;3.78;;;2.80;;
15843;SDS011;50807;52.436;13.346;2022-11-03T00:44:04;3.63;;;3.05;;
15843;SDS011;50807;52.436;13.346;2022-11-03T00:44:36;3.47;;;2.67;;
15843;SDS011;50807;52.436;13.346;2022-11-03T00:45:07;7.00;;;2.93;;
15843;SDS011;50807;52.436;13.346;2022-11-03T00:45:38;4.10;;;3.10;;
15843;SDS011;50807;52.436;13.346;2022-11-03T00:46:10;4.60;;;3.20;;
15843;SDS011;50807;52.436;13.346;2022-11-03T00:46:43;4.15;;;2.67;;
15843;SDS011;50807;52.436;13.346;2022-11-03T00:47:13;4.93;;;2.60;;
15843;SDS011;50807;52.436;13.346;2022-11-03T00:47:44;5.77;;;3.20;;
15843;SDS011;50807;52.436;13.346;2022-11-03T00:48:30;3.00;;;2.53;;
15843;SDS011;50807;52.436;13.346;2022-11-03T00:49:03;3.00;;;2.60;;
15843;SDS011;50807;52.436;13.346;2022-11-03T00:49:34;3.15;;;2.58;;
15843;SDS011;50807;52.436;13.346;2022-11-03T00:50:05;4.17;;;2.70;;
15843;SDS011;50807;52.436;13.346;2022-11-03T00:50:37;3.38;;;2.85;;
15843;SDS011;50807;52.436;13.346;2022-11-03T00:51:09;2.93;;;2.63;;
15843;SDS011;50807;52.436;13.346;2022-11-03T00:51:42;3.60;;;2.60;;
15843;SDS011;50807;52.436;13.346;2022-11-03T00:52:14;3.33;;;2.60;;
15843;SDS011;50807;52.436;13.346;2022-11-03T00:52:45;4.00;;;2.50;;
15843;SDS011;50807;52.436;13.346;2022-11-03T00:53:15;4.30;;;2.47;;
15843;SDS011;50807;52.436;13.346;2022-11-03T00:53:48;3.42;;;2.75;;
15843;SDS011;50807;52.436;13.346;2022-11-03T00:54:21;5.93;;;2.70;;
15843;SDS011;50807;52.436;13.346;2022-11-03T00:54:53;3.38;;;2.67;;
15843;SDS011;50807;52.436;13.346;2022-11-03T00:55:24;4.17;;;3.17;;
15843;SDS011;50807;52.436;13.346;2022-11-03T00:55:54;3.30;;;2.77;;
15843;SDS011;50807;52.436;13.346;2022-11-03T00:56:25;3.13;;;2.50;;
15843;SDS011;50807;52.436;13.346;2022-11-03T00:56:59;4.22;;;3.28;;
15843;SDS011;50807;52.436;13.346;2022-11-03T00:57:30;3.40;;;2.83;;
15843;SDS011;50807;52.436;13.346;2022-11-03T00:58:00;4.27;;;2.80;;
15843;SDS011;50807;52.436;13.346;2022-11-03T00:58:31;3.37;;;2.70;;
15843;SDS011;50807;52.436;13.346;2022-11-03T00:59:04;4.63;;;2.80;;
15843;SDS011;50807;52.436;13.346;2022-11-03T00:59:37;2.67;;;2.38;;
15843;SDS011;50807;52.436;13.346;2022-11-03T01:00:09;3.78;;;2.88;;
15843;SDS011;50807;52.436;13.346;2022-11-03T01:00:41;3.47;;;3.08;;
15843;SDS011;50807;52.436;13.346;2022-11-03T01:01:14;3.73;;;3.00;;
15843;SDS011;50807;52.436;13.346;2022-11-03T01:01:47;3.20;;;2.78;;
15843;SDS011;50807;52.436;13.346;2022-11-03T01:02:18;3.13;;;2.70;;
15843;SDS011;50807;52.436;13.346;2022-11-03T01:02:49;5.27;;;2.90;;
15843;SDS011;50807;52.436;13.346;2022-11-03T01:03:19;4.10;;;3.13;;
15843;SDS011;50807;52.436;13.346;2022-11-03T01:03:52;3.67;;;2.90;;
15843;SDS011;50807;52.436;13.346;2022-11-03T01:04:44;2.92;;;2.33;;
15843;SDS011;50807;52.436;13.346;2022-11-03T01:05:33;4.22;;;2.55;;
15843;SDS011;50807;52.436;13.346;2022-11-03T01:06:22;3.30;;;2.92;;
15843;SDS011;50807;52.436;13.346;2022-11-03T01:07:11;4.07;;;2.65;;
15843;SDS011;50807;52.436;13.346;2022-11-03T01:07:42;3.17;;;2.90;;
15843;SDS011;50807;52.436;13.346;2022-11-03T01:08:13;4.23;;;3.03;;
15843;SDS011;50807;52.436;13.346;2022-11-03T01:08:44;5.83;;;2.60;;
15843;SDS011;50807;52.436;13.346;2022-11-03T01:09:16;2.88;;;2.55;;
15843;SDS011;50807;52.436;13.346;2022-11-03T01:09:48;5.35;;;2.72;;
15843;SDS011;50807;52.436;13.346;2022-11-03T01:10:19;2.80;;;2.53;;
15843;SDS011;50807;52.436;13.346;2022-11-03T01:10:49;3.93;;;2.27;;
15843;SDS011;50807;52.436;13.346;2022-11-03T01:11:35;5.18;;;2.70;;
15843;SDS011;50807;52.436;13.346;2022-11-03T01:12:17;3.80;;;2.67;;
15843;SDS011;50807;52.436;13.346;2022-11-03T01:12:48;3.45;;;2.70;;
15843;SDS011;50807;52.436;13.346;2022-11-03T01:13:19;3.63;;;2.93;;
15843;SDS011;50807;52.436;13.346;2022-11-03T01:13:50;4.80;;;2.42;;
15843;SDS011;50807;52.436;13.346;2022-11-03T01:14:22;5.33;;;2.50;;
15843;SDS011;50807;52.436;13.346;2022-11-03T01:14:54;4.03;;;2.50;;
15843;SDS011;50807;52.436;13.346;2022-11-03T01:15:26;3.75;;;2.97;;
15843;SDS011;50807;52.436;13.346;2022-11-03T01:15:57;4.23;;;2.50;;
15843;SDS011;50807;52.436;13.346;2022-11-03T01:16:29;5.40;;;2.67;;
15843;SDS011;50807;52.436;13.346;2022-11-03T01:17:00;4.13;;;2.05;;
15843;SDS011;50807;52.436;13.346;2022-11-03T01:17:34;3.83;;;2.45;;
15843;SDS011;50807;52.436;13.346;2022-11-03T01:18:05;4.67;;;2.37;;
15843;SDS011;50807;52.436;13.346;2022-11-03T01:18:36;2.50;;;1.90;;
15843;SDS011;50807;52.436;13.346;2022-11-03T01:19:07;3.67;;;2.13;;
15843;SDS011;50807;52.436;13.346;2022-11-03T01:19:39;4.25;;;2.60;;
15843;SDS011;50807;52.436;13.346;2022-11-03T01:20:10;2.93;;;2.20;;
15843;SDS011;50807;52.436;13.346;2022-11-03T01:20:41;3.33;;;2.37;;
15843;SDS011;50807;52.436;13.346;2022-11-03T01:21:12;3.63;;;2.17;;
15843;SDS011;50807;52.436;13.346;2022-11-03T01:21:43;2.97;;;2.05;;
15843;SDS011;50807;52.436;13.346;2022-11-03T01:22:14;2.73;;;1.97;;
15843;SDS011;50807;52.436;13.346;2022-11-03T01:22:47;4.13;;;2.53;;
15843;SDS011;50807;52.436;13.346;2022-11-03T01:23:18;6.10;;;2.63;;
15843;SDS011;50807;52.436;13.346;2022-11-03T01:23:49;3.90;;;2.10;;
15843;SDS011;50807;52.436;13.346;2022-11-03T01:24:20;4.67;;;2.10;;
15843;SDS011;50807;52.436;13.346;2022-11-03T01:24:52;3.58;;;2.10;;
15843;SDS011;50807;52.436;13.346;2022-11-03T01:25:22;3.07;;;2.30;;
15843;SDS011;50807;52.436;13.346;2022-11-03T01:25:54;2.08;;;1.65;;
15843;SDS011;50807;52.436;13.346;2022-11-03T01:26:25;5.10;;;2.33;;
15843;SDS011;50807;52.436;13.346;2022-11-03T01:26:56;4.65;;;2.05;;
15843;SDS011;50807;52.436;13.346;2022-11-03T01:27:27;3.27;;;2.23;;
15843;SDS011;50807;52.436;13.346;2022-11-03T01:27:58;4.53;;;2.05;;
15843;SDS011;50807;52.436;13.346;2022-11-03T01:28:30;3.00;;;1.98;;
15843;SDS011;50807;52.436;13.346;2022-11-03T01:29:02;3.55;;;2.33;;
15843;SDS011;50807;52.436;13.346;2022-11-03T01:29:34;3.03;;;2.13;;
15843;SDS011;50807;52.436;13.346;2022-11-03T01:30:06;2.28;;;1.90;;
15843;SDS011;50807;52.436;13.346;2022-11-03T01:30:38;2.67;;;2.00;;
15843;SDS011;50807;52.436;13.346;2022-11-03T01:31:09;4.43;;;1.93;;
15843;SDS011;50807;52.436;13.346;2022-11-03T01:31:45;5.63;;;2.65;;
15843;SDS011;50807;52.436;13.346;2022-11-03T01:32:16;2.92;;;2.03;;
15843;SDS011;50807;52.436;13.346;2022-11-03T01:32:48;5.18;;;2.20;;
15843;SDS011;50807;52.436;13.346;2022-11-03T01:33:18;3.43;;;2.43;;
15843;SDS011;50807;52.436;13.346;2022-11-03T01:33:50;2.27;;;2.00;;
15843;SDS011;50807;52.436;13.346;2022-11-03T01:34:23;2.83;;;1.85;;
15843;SDS011;50807;52.436;13.346;2022-11-03T01:34:54;3.65;;;2.10;;
15843;SDS011;50807;52.436;13.346;2022-11-03T01:35:25;2.73;;;2.13;;
15843;SDS011;50807;52.436;13.346;2022-11-03T01:35:56;2.73;;;1.67;;
15843;SDS011;50807;52.436;13.346;2022-11-03T01:36:27;2.60;;;2.03;;
15843;SDS011;50807;52.436;13.346;2022-11-03T01:36:59;2.58;;;1.90;;
15843;SDS011;50807;52.436;13.346;2022-11-03T01:37:30;2.30;;;1.80;;
15843;SDS011;50807;52.436;13.346;2022-11-03T01:38:01;3.27;;;2.07;;
15843;SDS011;50807;52.436;13.346;2022-11-03T01:38:32;2.53;;;1.97;;
15843;SDS011;50807;52.436;13.346;2022-11-03T01:39:05;3.28;;;2.25;;
15843;SDS011;50807;52.436;13.346;2022-11-03T01:39:35;4.50;;;2.03;;
15843;SDS011;50807;52.436;13.346;2022-11-03T01:40:07;3.77;;;1.90;;
15843;SDS011;50807;52.436;13.346;2022-11-03T01:40:40;3.72;;;2.03;;
15843;SDS011;50807;52.436;13.346;2022-11-03T01:41:12;3.07;;;2.03;;
15843;SDS011;50807;52.436;13.346;2022-11-03T01:41:46;2.20;;;1.98;;
15843;SDS011;50807;52.436;13.346;2022-11-03T01:42:21;4.05;;;2.33;;
15843;SDS011;50807;52.436;13.346;2022-11-03T01:42:51;3.73;;;2.13;;
15843;SDS011;50807;52.436;13.346;2022-11-03T01:43:22;3.87;;;2.20;;
15843;SDS011;50807;52.436;13.346;2022-11-03T01:45:03;3.65;;;2.03;;
15843;SDS011;50807;52.436;13.346;2022-11-03T01:45:35;2.22;;;1.80;;
15843;SDS011;50807;52.436;13.346;2022-11-03T01:46:06;3.00;;;2.50;;
15843;SDS011;50807;52.436;13.346;2022-11-03T01:46:48;2.53;;;2.17;;
15843;SDS011;50807;52.436;13.346;2022-11-03T01:47:24;3.47;;;2.13;;
15843;SDS011;50807;52.436;13.346;2022-11-03T01:47:58;2.65;;;2.20;;
15843;SDS011;50807;52.436;13.346;2022-11-03T01:48:29;2.47;;;1.90;;
15843;SDS011;50807;52.436;13.346;2022-11-03T01:49:03;2.85;;;2.30;;
15843;SDS011;50807;52.436;13.346;2022-11-03T01:49:40;4.20;;;1.85;;
15843;SDS011;50807;52.436;13.346;2022-11-03T01:50:17;3.83;;;2.03;;
15843;SDS011;50807;52.436;13.346;2022-11-03T01:50:49;2.83;;;2.20;;
15843;SDS011;50807;52.436;13.346;2022-11-03T01:51:21;2.88;;;2.20;;
15843;SDS011;50807;52.436;13.346;2022-11-03T01:51:58;3.88;;;1.98;;
15843;SDS011;50807;52.436;13.346;2022-11-03T01:52:35;2.90;;;1.83;;
15843;SDS011;50807;52.436;13.346;2022-11-03T01:53:11;3.60;;;2.08;;
15843;SDS011;50807;52.436;13.346;2022-11-03T01:53:46;2.83;;;1.92;;
15843;SDS011;50807;52.436;13.346;2022-11-03T01:54:21;2.40;;;2.10;;
15843;SDS011;50807;52.436;13.346;2022-11-03T01:54:57;2.67;;;2.30;;
15843;SDS011;50807;52.436;13.346;2022-11-03T01:55:35;2.88;;;1.80;;
15843;SDS011;50807;52.436;13.346;2022-11-03T01:56:08;3.58;;;2.33;;
15843;SDS011;50807;52.436;13.346;2022-11-03T01:56:42;5.15;;;2.55;;
15843;SDS011;50807;52.436;13.346;2022-11-03T01:57:20;2.67;;;2.20;;
15843;SDS011;50807;52.436;13.346;2022-11-03T01:57:56;3.38;;;2.17;;
15843;SDS011;50807;52.436;13.346;2022-11-03T01:58:34;2.67;;;1.90;;
15843;SDS011;50807;52.436;13.346;2022-11-03T01:59:08;2.65;;;2.00;;
15843;SDS011;50807;52.436;13.346;2022-11-03T01:59:40;3.05;;;2.28;;
15843;SDS011;50807;52.436;13.346;2022-11-03T02:00:14;4.15;;;2.40;;
15843;SDS011;50807;52.436;13.346;2022-11-03T02:00:46;3.60;;;2.30;;
15843;SDS011;50807;52.436;13.346;2022-11-03T02:01:21;2.70;;;2.10;;
15843;SDS011;50807;52.436;13.346;2022-11-03T02:01:54;2.70;;;2.00;;
15843;SDS011;50807;52.436;13.346;2022-11-03T02:02:25;2.83;;;1.90;;
15843;SDS011;50807;52.436;13.346;2022-11-03T02:02:56;2.45;;;2.17;;
15843;SDS011;50807;52.436;13.346;2022-11-03T02:03:31;4.15;;;2.15;;
15843;SDS011;50807;52.436;13.346;2022-11-03T02:04:09;2.10;;;1.73;;
15843;SDS011;50807;52.436;13.346;2022-11-03T02:04:46;3.75;;;2.25;;
15843;SDS011;50807;52.436;13.346;2022-11-03T02:05:18;3.28;;;2.03;;
15843;SDS011;50807;52.436;13.346;2022-11-03T02:05:54;2.90;;;2.10;;
15843;SDS011;50807;52.436;13.346;2022-11-03T02:06:25;4.60;;;2.33;;
15843;SDS011;50807;52.436;13.346;2022-11-03T02:07:03;5.50;;;2.15;;
15843;SDS011;50807;52.436;13.346;2022-11-03T02:07:46;3.10;;;2.00;;
15843;SDS011;50807;52.436;13.346;2022-11-03T02:08:24;2.97;;;2.10;;
15843;SDS011;50807;52.436;13.346;2022-11-03T02:09:04;4.90;;;2.22;;
15843;SDS011;50807;52.436;13.346;2022-11-03T02:09:37;2.42;;;1.95;;
15843;SDS011;50807;52.436;13.346;2022-11-03T02:10:09;4.03;;;2.08;;
15843;SDS011;50807;52.436;13.346;2022-11-03T02:10:40;2.60;;;1.95;;
15843;SDS011;50807;52.436;13.346;2022-11-03T02:11:11;1.70;;;1.57;;
15843;SDS011;50807;52.436;13.346;2022-11-03T02:12:00;2.83;;;2.35;;
15843;SDS011;50807;52.436;13.346;2022-11-03T02:12:38;2.47;;;1.90;;
15843;SDS011;50807;52.436;13.346;2022-11-03T02:13:11;4.25;;;2.47;;
15843;SDS011;50807;52.436;13.346;2022-11-03T02:13:48;3.03;;;2.15;;
15843;SDS011;50807;52.436;13.346;2022-11-03T02:14:20;2.83;;;2.20;;
15843;SDS011;50807;52.436;13.346;2022-11-03T02:14:51;2.17;;;1.97;;
15843;SDS011;50807;52.436;13.346;2022-11-03T02:15:27;4.22;;;2.17;;
15843;SDS011;50807;52.436;13.346;2022-11-03T02:16:00;3.72;;;2.50;;
15843;SDS011;50807;52.436;13.346;2022-11-03T02:16:31;3.83;;;2.00;;
15843;SDS011;50807;52.436;13.346;2022-11-03T02:17:05;1.98;;;1.77;;
15843;SDS011;50807;52.436;13.346;2022-11-03T02:17:41;3.63;;;2.20;;
15843;SDS011;50807;52.436;13.346;2022-11-03T02:18:16;2.75;;;2.10;;
15843;SDS011;50807;52.436;13.346;2022-11-03T02:18:51;4.03;;;2.17;;
15843;SDS011;50807;52.436;13.346;2022-11-03T02:19:26;3.55;;;1.90;;
15843;SDS011;50807;52.436;13.346;2022-11-03T02:20:05;2.60;;;1.80;;
15843;SDS011;50807;52.436;13.346;2022-11-03T02:20:41;4.78;;;2.20;;
15843;SDS011;50807;52.436;13.346;2022-11-03T02:21:19;4.00;;;2.22;;
15843;SDS011;50807;52.436;13.346;2022-11-03T02:21:57;2.95;;;1.88;;
15843;SDS011;50807;52.436;13.346;2022-11-03T02:22:42;3.47;;;2.17;;
15843;SDS011;50807;52.436;13.346;2022-11-03T02:23:35;2.90;;;2.05;;
15843;SDS011;50807;52.436;13.346;2022-11-03T02:24:17;2.33;;;1.77;;
15843;SDS011;50807;52.436;13.346;2022-11-03T02:24:58;3.85;;;2.38;;
15843;SDS011;50807;52.436;13.346;2022-11-03T02:25:44;3.78;;;2.28;;
15843;SDS011;50807;52.436;13.346;2022-11-03T02:26:17;2.10;;;1.83;;
15843;SDS011;50807;52.436;13.346;2022-11-03T02:26:49;5.07;;;2.53;;
15843;SDS011;50807;52.436;13.346;2022-11-03T02:27:25;3.53;;;2.03;;
15843;SDS011;50807;52.436;13.346;2022-11-03T02:27:56;3.15;;;2.53;;
15843;SDS011;50807;52.436;13.346;2022-11-03T02:28:29;3.33;;;2.45;;
15843;SDS011;50807;52.436;13.346;2022-11-03T02:29:02;4.20;;;2.40;;
15843;SDS011;50807;52.436;13.346;2022-11-03T02:29:33;2.90;;;2.03;;
15843;SDS011;50807;52.436;13.346;2022-11-03T02:30:05;4.93;;;2.50;;
15843;SDS011;50807;52.436;13.346;2022-11-03T02:30:37;3.53;;;2.00;;
15843;SDS011;50807;52.436;13.346;2022-11-03T02:31:15;3.17;;;2.13;;
15843;SDS011;50807;52.436;13.346;2022-11-03T02:31:56;2.65;;;2.10;;
15843;SDS011;50807;52.436;13.346;2022-11-03T02:32:36;2.28;;;1.80;;
15843;SDS011;50807;52.436;13.346;2022-11-03T02:33:29;4.45;;;2.33;;
15843;SDS011;50807;52.436;13.346;2022-11-03T02:34:11;4.32;;;2.00;;
15843;SDS011;50807;52.436;13.346;2022-11-03T02:34:53;4.30;;;2.45;;
15843;SDS011;50807;52.436;13.346;2022-11-03T02:35:32;3.22;;;2.15;;
15843;SDS011;50807;52.436;13.346;2022-11-03T02:36:14;3.80;;;2.50;;
15843;SDS011;50807;52.436;13.346;2022-11-03T02:36:54;3.33;;;2.38;;
15843;SDS011;50807;52.436;13.346;2022-11-03T02:37:31;3.42;;;2.13;;
15843;SDS011;50807;52.436;13.346;2022-11-03T02:38:08;2.65;;;1.90;;
15843;SDS011;50807;52.436;13.346;2022-11-03T02:38:46;3.25;;;2.00;;
15843;SDS011;50807;52.436;13.346;2022-11-03T02:39:23;3.20;;;2.20;;
15843;SDS011;50807;52.436;13.346;2022-11-03T02:40:02;2.70;;;1.67;;
15843;SDS011;50807;52.436;13.346;2022-11-03T02:40:38;3.70;;;1.95;;
15843;SDS011;50807;52.436;13.346;2022-11-03T02:41:17;3.53;;;2.30;;
15843;SDS011;50807;52.436;13.346;2022-11-03T02:41:51;3.25;;;2.03;;
15843;SDS011;50807;52.436;13.346;2022-11-03T02:42:26;2.90;;;2.20;;
15843;SDS011;50807;52.436;13.346;2022-11-03T02:42:58;3.47;;;2.20;;
15843;SDS011;50807;52.436;13.346;2022-11-03T02:43:33;2.50;;;1.80;;
15843;SDS011;50807;52.436;13.346;2022-11-03T02:44:04;3.13;;;2.33;;
15843;SDS011;50807;52.436;13.346;2022-11-03T02:44:42;2.83;;;1.70;;
15843;SDS011;50807;52.436;13.346;2022-11-03T02:45:17;2.85;;;1.98;;
15843;SDS011;50807;52.436;13.346;2022-11-03T02:45:51;4.57;;;2.05;;
15843;SDS011;50807;52.436;13.346;2022-11-03T02:46:24;3.38;;;1.88;;
15843;SDS011;50807;52.436;13.346;2022-11-03T02:47:00;2.95;;;1.95;;
15843;SDS011;50807;52.436;13.346;2022-11-03T02:47:37;4.90;;;2.22;;
15843;SDS011;50807;52.436;13.346;2022-11-03T02:48:09;3.78;;;1.90;;
15843;SDS011;50807;52.436;13.346;2022-11-03T02:48:44;3.05;;;1.95;;
15843;SDS011;50807;52.436;13.346;2022-11-03T02:49:17;2.95;;;1.77;;
15843;SDS011;50807;52.436;13.346;2022-11-03T02:49:48;3.00;;;2.07;;
15843;SDS011;50807;52.436;13.346;2022-11-03T02:50:25;4.72;;;2.25;;
15843;SDS011;50807;52.436;13.346;2022-11-03T02:50:57;2.63;;;1.83;;
15843;SDS011;50807;52.436;13.346;2022-11-03T02:51:28;3.50;;;2.10;;
15843;SDS011;50807;52.436;13.346;2022-11-03T02:52:00;3.15;;;1.88;;
15843;SDS011;50807;52.436;13.346;2022-11-03T02:52:35;4.40;;;2.20;;
15843;SDS011;50807;52.436;13.346;2022-11-03T02:53:08;2.47;;;1.80;;
15843;SDS011;50807;52.436;13.346;2022-11-03T02:53:44;3.08;;;2.25;;
15843;SDS011;50807;52.436;13.346;2022-11-03T02:54:27;1.83;;;1.60;;
15843;SDS011;50807;52.436;13.346;2022-11-03T02:55:06;2.30;;;1.70;;
15843;SDS011;50807;52.436;13.346;2022-11-03T02:55:47;3.58;;;2.00;;
15843;SDS011;50807;52.436;13.346;2022-11-03T02:56:28;2.72;;;1.90;;
15843;SDS011;50807;52.436;13.346;2022-11-03T02:57:05;3.15;;;2.05;;
15843;SDS011;50807;52.436;13.346;2022-11-03T02:57:45;3.65;;;1.90;;
15843;SDS011;50807;52.436;13.346;2022-11-03T02:58:25;3.13;;;2.00;;
15843;SDS011;50807;52.436;13.346;2022-11-03T02:59:05;2.55;;;1.83;;
15843;SDS011;50807;52.436;13.346;2022-11-03T02:59:42;3.75;;;2.00;;
15843;SDS011;50807;52.436;13.346;2022-11-03T03:00:21;2.65;;;1.90;;
15843;SDS011;50807;52.436;13.346;2022-11-03T03:00:54;2.55;;;2.03;;
15843;SDS011;50807;52.436;13.346;2022-11-03T03:01:31;3.35;;;1.90;;
15843;SDS011;50807;52.436;13.346;2022-11-03T03:02:07;3.88;;;2.10;;
15843;SDS011;50807;52.436;13.346;2022-11-03T03:02:46;3.05;;;2.10;;
15843;SDS011;50807;52.436;13.346;2022-11-03T03:03:28;2.60;;;1.83;;
15843;SDS011;50807;52.436;13.346;2022-11-03T03:04:08;2.35;;;1.88;;
15843;SDS011;50807;52.436;13.346;2022-11-03T03:04:39;3.30;;;2.03;;
15843;SDS011;50807;52.436;13.346;2022-11-03T03:05:15;3.40;;;2.10;;
15843;SDS011;50807;52.436;13.346;2022-11-03T03:05:51;4.70;;;2.55;;
15843;SDS011;50807;52.436;13.346;2022-11-03T03:06:28;2.63;;;2.03;;
15843;SDS011;50807;52.436;13.346;2022-11-03T03:07:05;2.83;;;1.90;;
15843;SDS011;50807;52.436;13.346;2022-11-03T03:07:43;2.45;;;1.77;;
15843;SDS011;50807;52.436;13.346;2022-11-03T03:08:17;3.50;;;1.92;;
15843;SDS011;50807;52.436;13.346;2022-11-03T03:08:52;3.20;;;1.83;;
15843;SDS011;50807;52.436;13.346;2022-11-03T03:09:30;2.92;;;1.98;;
15843;SDS011;50807;52.436;13.346;2022-11-03T03:10:09;3.72;;;1.73;;
15843;SDS011;50807;52.436;13.346;2022-11-03T03:10:45;2.72;;;2.08;;
15843;SDS011;50807;52.436;13.346;2022-11-03T03:11:18;3.15;;;1.88;;
15843;SDS011;50807;52.436;13.346;2022-11-03T03:12:05;2.97;;;2.30;;
15843;SDS011;50807;52.436;13.346;2022-11-03T03:12:40;3.80;;;2.03;;
15843;SDS011;50807;52.436;13.346;2022-11-03T03:13:18;4.00;;;1.95;;
15843;SDS011;50807;52.436;13.346;2022-11-03T03:13:52;3.75;;;2.00;;
15843;SDS011;50807;52.436;13.346;2022-11-03T03:14:24;4.30;;;2.13;;
15843;SDS011;50807;52.436;13.346;2022-11-03T03:14:59;3.88;;;2.35;;
15843;SDS011;50807;52.436;13.346;2022-11-03T03:15:38;3.55;;;1.98;;
15843;SDS011;50807;52.436;13.346;2022-11-03T03:16:18;2.00;;;1.80;;
15843;SDS011;50807;52.436;13.346;2022-11-03T03:17:06;2.42;;;1.92;;
15843;SDS011;50807;52.436;13.346;2022-11-03T03:17:44;4.13;;;1.80;;
15843;SDS011;50807;52.436;13.346;2022-11-03T03:18:22;2.10;;;1.80;;
15843;SDS011;50807;52.436;13.346;2022-11-03T03:19:00;2.38;;;1.80;;
15843;SDS011;50807;52.436;13.346;2022-11-03T03:19:42;3.10;;;1.75;;
15843;SDS011;50807;52.436;13.346;2022-11-03T03:20:20;3.20;;;1.83;;
15843;SDS011;50807;52.436;13.346;2022-11-03T03:20:57;4.43;;;1.80;;
15843;SDS011;50807;52.436;13.346;2022-11-03T03:21:35;2.60;;;1.83;;
15843;SDS011;50807;52.436;13.346;2022-11-03T03:22:14;4.35;;;1.98;;
15843;SDS011;50807;52.436;13.346;2022-11-03T03:22:54;2.42;;;1.90;;
15843;SDS011;50807;52.436;13.346;2022-11-03T03:23:30;2.25;;;1.80;;
15843;SDS011;50807;52.436;13.346;2022-11-03T03:24:06;4.18;;;2.42;;